createdAt,value
2022-10-23T00:00:58.924Z,12.937
2022-10-23T00:03:58.758Z,12.875
2022-10-23T00:06:58.713Z,12.875
2022-10-23T00:09:58.933Z,12.812
2022-10-23T00:12:58.354Z,12.875
2022-10-23T00:15:59.227Z,12.875
2022-10-23T00:18:58.699Z,12.875
2022-10-23T00:21:58.682Z,12.875
2022-10-23T00:24:58.603Z,12.937
2022-10-23T00:27:58.569Z,12.937
2022-10-23T00:30:59.291Z,13.187
2022-10-23T00:33:58.722Z,13.187
2022-10-23T00:36:58.362Z,13.25
2022-10-23T00:39:59.392Z,13.375
2022-10-23T00:42:59.395Z,13.437
2022-10-23T00:45:59.384Z,13.562
2022-10-23T00:48:58.415Z,13.562
2022-10-23T00:51:58.501Z,13.562
2022-10-23T00:54:58.192Z,13.687
2022-10-23T00:57:58.567Z,13.687
2022-10-23T01:00:59.030Z,13.687
2022-10-23T01:03:59.091Z,13.75
2022-10-23T01:06:59.034Z,13.875
2022-10-23T01:09:58.977Z,13.875
2022-10-23T01:12:59.057Z,14.125
2022-10-23T01:15:58.929Z,14.062
2022-10-23T01:18:59.043Z,14.062
2022-10-23T01:21:58.630Z,13.75
2022-10-23T01:24:58.646Z,13.687
2022-10-23T01:27:58.870Z,13.562
2022-10-23T01:30:58.662Z,13.625
2022-10-23T01:33:58.487Z,13.687
2022-10-23T01:36:58.820Z,13.625
2022-10-23T01:39:58.604Z,13.625
2022-10-23T01:42:58.623Z,13.625
2022-10-23T01:45:58.870Z,13.625
2022-10-23T01:48:59.448Z,13.75
2022-10-23T01:51:58.347Z,13.625
2022-10-23T01:54:59.207Z,13.687
2022-10-23T01:57:58.736Z,13.75
2022-10-23T02:00:59.356Z,13.687
2022-10-23T02:06:59.046Z,13.5
2022-10-23T02:09:59.147Z,13.375
2022-10-23T02:12:59.333Z,13.125
2022-10-23T02:15:58.763Z,13.125
2022-10-23T02:18:58.755Z,13.187
2022-10-23T02:21:58.340Z,13.0
2022-10-23T02:24:59.090Z,13.0
2022-10-23T02:27:57.903Z,13.0
2022-10-23T02:30:58.809Z,13.062
2022-10-23T02:33:59.248Z,13.125
2022-10-23T02:36:58.805Z,13.187
2022-10-23T02:39:58.731Z,13.25
2022-10-23T02:42:58.677Z,13.312
2022-10-23T02:45:58.613Z,13.312
2022-10-23T02:48:59.478Z,13.25
2022-10-23T02:51:59.534Z,13.062
2022-10-23T02:54:58.713Z,13.062
2022-10-23T02:57:59.265Z,13.062
2022-10-23T03:00:59.050Z,13.0
2022-10-23T03:03:58.431Z,13.0
2022-10-23T03:06:58.377Z,13.062
2022-10-23T03:09:58.880Z,13.187
2022-10-23T03:12:59.090Z,13.187
2022-10-23T03:15:59.051Z,13.25
2022-10-23T03:18:59.118Z,13.187
2022-10-23T03:21:58.932Z,13.187
2022-10-23T03:24:58.531Z,13.375
2022-10-23T03:27:58.288Z,13.437
2022-10-23T03:30:59.214Z,13.312
2022-10-23T03:33:58.712Z,13.375
2022-10-23T03:36:58.997Z,13.187
2022-10-23T03:39:58.728Z,13.187
2022-10-23T03:42:58.919Z,13.125
2022-10-23T03:45:58.765Z,13.125
2022-10-23T03:48:58.516Z,13.0
2022-10-23T03:51:58.696Z,13.125
2022-10-23T03:54:58.713Z,13.125
2022-10-23T03:57:58.683Z,13.125
2022-10-23T04:00:58.813Z,13.062
2022-10-23T04:03:58.823Z,13.062
2022-10-23T04:06:58.754Z,13.062
2022-10-23T04:09:58.531Z,13.125
2022-10-23T04:13:00.783Z,13.125
2022-10-23T04:15:58.804Z,13.125
2022-10-23T04:18:59.072Z,13.187
2022-10-23T04:21:59.244Z,13.312
2022-10-23T04:24:58.303Z,13.375
2022-10-23T04:27:58.309Z,13.437
2022-10-23T04:30:59.249Z,13.5
2022-10-23T04:33:59.096Z,13.5
2022-10-23T04:36:59.134Z,13.437
2022-10-23T04:39:58.833Z,13.187
2022-10-23T04:42:58.925Z,13.312
2022-10-23T04:45:59.079Z,13.25
2022-10-23T04:48:58.827Z,13.312
2022-10-23T04:51:59.414Z,13.312
2022-10-23T04:54:58.206Z,13.312
2022-10-23T04:57:59.665Z,13.312
2022-10-23T05:00:59.164Z,13.312
2022-10-23T05:03:58.700Z,13.375
2022-10-23T05:06:58.912Z,13.437
2022-10-23T05:09:59.008Z,13.312
2022-10-23T05:12:59.034Z,13.062
2022-10-23T05:15:59.525Z,13.187
2022-10-23T05:18:59.265Z,13.187
2022-10-23T05:21:58.910Z,13.187
2022-10-23T05:24:58.322Z,12.937
2022-10-23T05:27:58.465Z,12.812
2022-10-23T05:30:59.218Z,12.937
2022-10-23T05:33:59.173Z,13.0
2022-10-23T05:36:59.374Z,12.75
2022-10-23T05:39:59.570Z,12.75
2022-10-23T05:42:58.405Z,12.75
2022-10-23T05:45:58.222Z,12.812
2022-10-23T05:51:59.178Z,12.687
2022-10-23T05:54:58.219Z,12.687
2022-10-23T05:57:59.252Z,11.937
2022-10-23T06:00:59.056Z,12.25
2022-10-23T06:03:58.533Z,12.312
2022-10-23T06:06:58.425Z,12.375
2022-10-23T06:09:59.970Z,12.687
2022-10-23T06:12:59.080Z,12.937
2022-10-23T06:15:59.011Z,13.125
2022-10-23T06:18:58.733Z,13.125
2022-10-23T06:21:58.723Z,13.062
2022-10-23T06:24:58.879Z,13.062
2022-10-23T06:27:59.304Z,13.187
2022-10-23T06:30:59.245Z,12.937
2022-10-23T06:33:58.790Z,12.75
2022-10-23T06:36:58.715Z,13.375
2022-10-23T06:39:58.864Z,13.5
2022-10-23T06:42:58.636Z,13.5
2022-10-23T06:45:58.397Z,13.562
2022-10-23T06:48:58.344Z,13.5
2022-10-23T06:51:59.513Z,13.5
2022-10-23T06:54:58.545Z,13.75
2022-10-23T06:57:58.304Z,13.812
2022-10-23T07:00:59.357Z,13.812
2022-10-23T07:03:59.050Z,13.812
2022-10-23T07:06:59.166Z,14.437
2022-10-23T07:10:00.114Z,14.625
2022-10-23T07:12:58.550Z,14.75
2022-10-23T07:15:59.008Z,14.75
2022-10-23T07:18:59.168Z,14.75
2022-10-23T07:21:58.759Z,14.812
2022-10-23T07:24:59.204Z,14.812
2022-10-23T07:27:58.359Z,14.687
2022-10-23T07:30:59.676Z,14.562
2022-10-23T07:33:58.781Z,14.5
2022-10-23T07:36:58.822Z,14.437
2022-10-23T07:39:58.574Z,14.125
2022-10-23T07:42:59.169Z,13.937
2022-10-23T07:45:58.676Z,13.937
2022-10-23T07:48:59.186Z,13.562
2022-10-23T07:51:58.892Z,13.562
2022-10-23T07:54:58.809Z,13.687
2022-10-23T07:57:59.239Z,13.562
2022-10-23T08:00:59.453Z,13.562
2022-10-23T08:03:59.255Z,13.5
2022-10-23T08:06:58.296Z,13.437
2022-10-23T08:09:58.742Z,13.562
2022-10-23T08:12:58.815Z,13.687
2022-10-23T08:15:58.349Z,13.625
2022-10-23T08:18:59.269Z,13.812
2022-10-23T08:22:00.471Z,14.062
2022-10-23T08:24:58.269Z,14.062
2022-10-23T08:28:02.012Z,14.687
2022-10-23T08:30:59.291Z,14.812
2022-10-23T08:33:58.782Z,15.125
2022-10-23T08:36:58.868Z,15.437
2022-10-23T08:39:59.231Z,15.875
2022-10-23T08:42:59.056Z,15.875
2022-10-23T08:45:58.936Z,15.875
2022-10-23T08:48:58.939Z,15.875
2022-10-23T08:51:59.349Z,16.437
2022-10-23T08:54:59.610Z,16.562
2022-10-23T08:57:58.596Z,16.625
2022-10-23T09:00:58.879Z,16.812
2022-10-23T09:03:58.530Z,16.75
2022-10-23T09:06:58.755Z,16.687
2022-10-23T09:09:58.434Z,16.812
2022-10-23T09:12:58.475Z,17.562
2022-10-23T09:15:58.535Z,17.562
2022-10-23T09:18:58.515Z,17.0
2022-10-23T09:21:59.181Z,16.75
2022-10-23T09:24:58.317Z,16.687
2022-10-23T09:28:00.169Z,16.5
2022-10-23T09:30:58.766Z,16.187
2022-10-23T09:33:59.046Z,16.0
2022-10-23T09:36:58.320Z,15.937
2022-10-23T09:39:59.214Z,15.75
2022-10-23T09:42:58.953Z,15.562
2022-10-23T09:45:59.948Z,15.562
2022-10-23T09:49:00.934Z,15.562
2022-10-23T09:51:58.908Z,16.437
2022-10-23T09:54:58.701Z,16.562
2022-10-23T09:57:59.632Z,16.75
2022-10-23T10:00:59.171Z,17.062
2022-10-23T10:03:58.668Z,17.125
2022-10-23T10:06:58.830Z,17.312
2022-10-23T10:09:58.586Z,17.562
2022-10-23T10:12:59.383Z,17.625
2022-10-23T10:15:59.127Z,17.937
2022-10-23T10:18:58.535Z,17.937
2022-10-23T10:21:59.040Z,17.937
2022-10-23T10:24:59.420Z,17.937
2022-10-23T10:27:58.350Z,17.75
2022-10-23T10:30:59.137Z,17.75
2022-10-23T10:33:58.601Z,17.937
2022-10-23T10:36:59.195Z,17.937
2022-10-23T10:39:58.230Z,18.312
2022-10-23T10:42:59.320Z,18.562
2022-10-23T10:45:58.261Z,18.5
2022-10-23T10:48:59.055Z,18.375
2022-10-23T10:51:58.978Z,18.75
2022-10-23T10:54:59.528Z,18.5
2022-10-23T10:57:59.950Z,18.437
2022-10-23T11:00:59.160Z,18.5
2022-10-23T11:04:17.623Z,18.375
2022-10-23T11:06:58.901Z,18.437
2022-10-23T11:09:58.968Z,18.625
2022-10-23T11:12:59.458Z,18.875
2022-10-23T11:15:58.807Z,19.125
2022-10-23T11:18:58.784Z,19.125
2022-10-23T11:21:59.149Z,19.125
2022-10-23T11:24:59.109Z,18.25
2022-10-23T11:28:02.167Z,18.437
2022-10-23T11:30:59.379Z,18.625
2022-10-23T11:33:59.425Z,18.625
2022-10-23T11:36:58.720Z,18.625
2022-10-23T11:39:58.995Z,19.062
2022-10-23T11:42:59.365Z,19.187
2022-10-23T11:45:58.642Z,19.187
2022-10-23T11:48:59.407Z,18.875
2022-10-23T11:51:58.694Z,18.875
2022-10-23T11:54:59.025Z,19.125
2022-10-23T11:57:59.216Z,19.5
2022-10-23T12:00:58.992Z,19.625
2022-10-23T12:03:58.902Z,19.312
2022-10-23T12:06:58.507Z,19.312
2022-10-23T12:09:58.971Z,19.0
2022-10-23T12:12:59.136Z,19.0
2022-10-23T12:16:00.947Z,18.75
2022-10-23T12:18:58.662Z,18.687
2022-10-23T12:21:59.482Z,18.687
2022-10-23T12:24:59.579Z,18.75
2022-10-23T12:27:58.864Z,18.75
2022-10-23T12:30:59.579Z,18.625
2022-10-23T12:33:58.935Z,18.437
2022-10-23T12:36:59.505Z,18.375
2022-10-23T12:39:58.462Z,18.062
2022-10-23T12:42:58.774Z,18.187
2022-10-23T12:45:58.805Z,18.187
2022-10-23T12:48:58.629Z,18.062
2022-10-23T12:51:58.530Z,17.937
2022-10-23T12:54:59.161Z,17.875
2022-10-23T12:57:58.225Z,17.875
2022-10-23T13:00:59.261Z,17.75
2022-10-23T13:03:59.459Z,17.75
2022-10-23T13:06:58.539Z,17.75
2022-10-23T13:09:58.482Z,17.812
2022-10-23T13:12:59.529Z,17.875
2022-10-23T13:15:59.051Z,18.0
2022-10-23T13:18:59.117Z,18.125
2022-10-23T13:21:58.830Z,18.062
2022-10-23T13:24:58.930Z,18.0
2022-10-23T13:27:59.360Z,18.0
2022-10-23T13:30:59.827Z,18.687
2022-10-23T13:33:59.152Z,18.687
2022-10-23T13:36:59.006Z,19.312
2022-10-23T13:39:58.689Z,19.437
2022-10-23T13:42:59.022Z,19.375
2022-10-23T13:45:58.695Z,18.875
2022-10-23T13:48:58.589Z,18.625
2022-10-23T13:51:58.673Z,18.437
2022-10-23T13:54:59.187Z,18.125
2022-10-23T13:57:58.447Z,17.875
2022-10-23T14:00:58.797Z,17.812
2022-10-23T14:03:58.590Z,17.562
2022-10-23T14:06:58.891Z,17.437
2022-10-23T14:09:59.201Z,17.437
2022-10-23T14:12:58.901Z,17.25
2022-10-23T14:15:59.225Z,17.25
2022-10-23T14:18:59.286Z,17.125
2022-10-23T14:21:58.724Z,17.125
2022-10-23T14:24:59.245Z,17.0
2022-10-23T14:27:59.021Z,16.937
2022-10-23T14:31:00.000Z,16.937
2022-10-23T14:33:58.159Z,16.937
2022-10-23T14:37:08.759Z,16.75
2022-10-23T14:39:58.915Z,16.687
2022-10-23T14:42:58.664Z,16.687
2022-10-23T14:45:58.830Z,16.687
2022-10-23T14:49:02.307Z,16.812
2022-10-23T14:51:58.734Z,16.687
2022-10-23T14:54:58.609Z,16.625
2022-10-23T14:57:58.640Z,16.625
2022-10-23T15:00:59.554Z,16.5
2022-10-23T15:03:59.464Z,16.5
2022-10-23T15:06:58.639Z,16.375
2022-10-23T15:09:58.718Z,16.312
2022-10-23T15:12:59.164Z,16.25
2022-10-23T15:15:58.551Z,16.25
2022-10-23T15:18:58.341Z,16.25
2022-10-23T15:21:58.669Z,16.187
2022-10-23T15:24:58.301Z,16.125
2022-10-23T15:27:59.516Z,16.125
2022-10-23T15:30:58.855Z,16.25
2022-10-23T15:33:59.045Z,16.187
2022-10-23T15:36:59.294Z,16.125
2022-10-23T15:40:01.265Z,16.062
2022-10-23T15:42:59.334Z,16.0
2022-10-23T15:45:58.358Z,16.0
2022-10-23T15:48:58.399Z,15.937
2022-10-23T15:51:59.281Z,16.0
2022-10-23T15:54:58.755Z,15.937
2022-10-23T15:57:58.947Z,15.812
2022-10-23T16:00:59.587Z,15.687
2022-10-23T16:03:58.906Z,15.687
2022-10-23T16:06:59.135Z,15.562
2022-10-23T16:09:59.456Z,15.562
2022-10-23T16:12:58.451Z,15.562
2022-10-23T16:15:58.751Z,15.562
2022-10-23T16:18:59.268Z,15.562
2022-10-23T16:21:58.647Z,15.375
2022-10-23T16:24:59.276Z,15.375
2022-10-23T16:27:58.485Z,15.375
2022-10-23T16:30:59.310Z,15.437
2022-10-23T16:33:59.307Z,15.437
2022-10-23T16:36:58.807Z,15.437
2022-10-23T16:39:58.574Z,15.437
2022-10-23T16:42:59.307Z,15.375
2022-10-23T16:45:59.126Z,15.312
2022-10-23T16:48:59.204Z,15.312
2022-10-23T16:51:58.540Z,15.312
2022-10-23T16:54:58.897Z,15.312
2022-10-23T16:57:59.043Z,15.312
2022-10-23T17:00:59.129Z,15.0
2022-10-23T17:03:58.414Z,15.062
2022-10-23T17:06:59.224Z,15.062
2022-10-23T17:09:59.146Z,14.937
2022-10-23T17:12:59.018Z,14.875
2022-10-23T17:15:59.097Z,14.937
2022-10-23T17:18:58.577Z,14.937
2022-10-23T17:21:59.016Z,14.937
2022-10-23T17:24:58.845Z,14.937
2022-10-23T17:27:58.751Z,15.0
2022-10-23T17:30:59.032Z,15.0
2022-10-23T17:33:59.067Z,15.062
2022-10-23T17:36:58.333Z,15.062
2022-10-23T17:40:01.157Z,15.125
2022-10-23T17:42:59.259Z,15.0
2022-10-23T17:45:59.369Z,15.062
2022-10-23T17:48:59.333Z,15.125
2022-10-23T17:51:58.937Z,15.062
2022-10-23T17:54:59.285Z,15.062
2022-10-23T17:57:59.177Z,15.062
2022-10-23T18:01:26.137Z,15.062
2022-10-23T18:03:59.371Z,15.062
2022-10-23T18:06:58.846Z,15.125
2022-10-23T18:09:59.145Z,15.375
2022-10-23T18:12:58.898Z,15.375
2022-10-23T18:15:58.916Z,15.25
2022-10-23T18:18:58.889Z,15.062
2022-10-23T18:21:59.116Z,15.062
2022-10-23T18:24:59.230Z,15.0
2022-10-23T18:28:01.740Z,15.062
2022-10-23T18:30:58.752Z,15.062
2022-10-23T18:33:58.726Z,15.437
2022-10-23T18:36:59.083Z,15.437
2022-10-23T18:39:59.606Z,15.437
2022-10-23T18:42:58.834Z,15.75
2022-10-23T18:45:58.862Z,16.0
2022-10-23T18:48:59.474Z,16.0
2022-10-23T18:51:59.367Z,16.187
2022-10-23T18:54:58.577Z,17.312
2022-10-23T18:57:59.044Z,17.312
2022-10-23T19:00:59.279Z,16.812
2022-10-23T19:03:59.437Z,16.812
2022-10-23T19:06:58.852Z,16.25
2022-10-23T19:09:59.235Z,16.25
2022-10-23T19:12:59.126Z,16.187
2022-10-23T19:15:59.071Z,16.0
2022-10-23T19:18:58.671Z,15.812
2022-10-23T19:21:59.467Z,15.687
2022-10-23T19:24:58.699Z,15.562
2022-10-23T19:27:59.126Z,15.687
2022-10-23T19:30:59.251Z,15.75
2022-10-23T19:33:58.806Z,15.937
2022-10-23T19:36:58.968Z,15.937
2022-10-23T19:39:58.659Z,16.062
2022-10-23T19:42:58.651Z,15.937
2022-10-23T19:45:59.871Z,16.125
2022-10-23T19:48:58.781Z,16.0
2022-10-23T19:51:58.685Z,15.875
2022-10-23T19:54:58.966Z,16.375
2022-10-23T19:57:59.475Z,17.437
2022-10-23T20:01:00.234Z,17.937
2022-10-23T20:03:59.039Z,18.375
2022-10-23T20:06:59.090Z,18.375
2022-10-23T20:09:59.341Z,18.5
2022-10-23T20:13:15.148Z,18.625
2022-10-23T20:15:59.257Z,18.937
2022-10-23T20:18:59.377Z,18.937
2022-10-23T20:21:59.065Z,18.875
2022-10-23T20:24:58.968Z,18.75
2022-10-23T20:27:59.110Z,18.875
2022-10-23T20:30:59.053Z,18.562
2022-10-23T20:33:59.186Z,18.375
2022-10-23T20:36:59.404Z,18.375
2022-10-23T20:39:58.833Z,18.062
2022-10-23T20:42:59.513Z,18.312
2022-10-23T20:45:58.921Z,17.812
2022-10-23T20:48:58.802Z,17.75
2022-10-23T20:51:59.206Z,17.312
2022-10-23T20:54:58.915Z,17.437
2022-10-23T20:57:59.147Z,16.937
2022-10-23T21:00:59.790Z,16.5
2022-10-23T21:03:58.680Z,16.937
2022-10-23T21:07:09.535Z,17.062
2022-10-23T21:09:58.667Z,16.75
2022-10-23T21:12:58.698Z,16.062
2022-10-23T21:15:59.079Z,16.437
2022-10-23T21:18:58.498Z,16.0
2022-10-23T21:21:58.381Z,16.312
2022-10-23T21:24:59.277Z,16.312
2022-10-23T21:27:58.446Z,16.125
2022-10-23T21:30:59.193Z,16.062
2022-10-23T21:33:59.537Z,16.062
2022-10-23T21:37:12.459Z,16.062
2022-10-23T21:39:59.126Z,15.937
2022-10-23T21:42:58.758Z,15.625
2022-10-23T21:45:59.717Z,15.375
2022-10-23T21:48:58.934Z,15.125
2022-10-23T21:51:58.897Z,15.125
2022-10-23T21:54:59.096Z,14.625
2022-10-23T21:57:59.037Z,14.375
2022-10-23T22:01:00.604Z,14.562
2022-10-23T22:03:59.030Z,14.562
2022-10-23T22:06:58.857Z,15.312
2022-10-23T22:09:59.258Z,15.312
2022-10-23T22:12:59.397Z,15.062
2022-10-23T22:15:58.565Z,15.5
2022-10-23T22:18:58.967Z,15.312
2022-10-23T22:21:58.370Z,15.062
2022-10-23T22:24:59.388Z,14.812
2022-10-23T22:27:58.388Z,14.687
2022-10-23T22:30:59.023Z,14.687
2022-10-23T22:33:58.352Z,14.375
2022-10-23T22:36:59.172Z,14.687
2022-10-23T22:39:59.343Z,14.625
2022-10-23T22:42:59.108Z,14.625
2022-10-23T22:45:58.524Z,14.562
2022-10-23T22:48:58.760Z,14.562
2022-10-23T22:51:58.998Z,14.75
2022-10-23T22:54:58.238Z,14.625
2022-10-23T22:57:58.883Z,14.75
2022-10-23T23:00:59.590Z,14.562
2022-10-23T23:04:08.642Z,14.562
2022-10-23T23:06:59.020Z,14.5
2022-10-23T23:09:58.777Z,14.375
2022-10-23T23:12:58.991Z,14.375
2022-10-23T23:15:59.012Z,14.187
2022-10-23T23:18:59.288Z,14.437
2022-10-23T23:21:58.653Z,14.437
2022-10-23T23:24:58.614Z,14.125
2022-10-23T23:27:58.892Z,14.062
2022-10-23T23:30:59.125Z,13.937
2022-10-23T23:33:58.547Z,14.125
2022-10-23T23:36:58.327Z,14.062
2022-10-23T23:39:59.982Z,13.875
2022-10-23T23:42:58.484Z,14.062
2022-10-23T23:45:59.292Z,13.937
2022-10-23T23:48:59.201Z,13.75
2022-10-23T23:51:58.477Z,13.75
2022-10-23T23:54:59.512Z,13.812
2022-10-23T23:57:58.218Z,13.812
